Friday, August 01, 2014
01:49 UTC
  |  Log In   |  Register Free
Airport Search:

Bishop International Airport
(KFNT)

Bishop International Airport Diagram
No Airport Diagram Available

FAA data valid effective July 24, 2014 until September 18, 2014 (unless otherwise noted).

 
 
 
 
 
 
 
 
 
 
 
 
 
 

Current Aviation Weather for Bishop International Airport (KFNT)

The most recent METAR observation for KFNT was updated at: 1753 UTC
METAR Summary (Translated METAR)
KFNT
281753Z 36007KT 10SM SCT027 BKN050 OVC060 18/11 A2995 RMK AO2 SLP138 T01830111 10194 20161 51011
KRNP
(17.4 nm NW from KFNT)
281834Z AUTO 32009KT 10SM SCT027 SCT046 OVC060 17/12 A2996 RMK AO2 T01700116
TAF Summary (Translated TAF)
KFNT
311908Z 3119/0118 25010KT P6SM BKN050 BKN120 TEMPO 3119/3120 4SM -SHRA BKN040 FM312300 23005KT P6SM SCT050 FM010800 20005KT P6SM SCT050 BKN100 FM011400 24006KT P6SM BKN060
KPTK
(23 nm SE from KFNT)
311728Z 3118/0118 25010G17KT P6SM BKN050 BKN120 FM312300 23005KT P6SM SCT050 FM010800 20005KT P6SM BKN100 FM011400 24006KT P6SM BKN060
  Airport Weather Conditions for KFNT

 Current Weather at FNT
70° F
Fair
North winds at 0.0 mph
FNT NOAA Radar

Pressure: 30.02 in
Humidity: 66%
Wind: Calm
Dew Point: 57.9°F
Visibility: 10.00 mi


Airport Weather Forecast for KFNT

Translated METAR and TAF for KFNT
Translated METAR for KFNT (0143 UTC 01 August 2014)
found at http://aviationweather.gov/adds/metars/
 
METAR text: KFNT 010053Z 00000KT 10SM CLR 21/14 A3002 RMK AO2 SLP163 T02110144
Conditions at: KFNT (FLINT , MI, US) observed 0053 UTC 01 August 2014
Temperature: 21.1°C (70°F)
Dewpoint: 14.4°C (58°F) [RH = 66%]
Pressure (altimeter): 30.02 inches Hg (1016.7 mb)
[Sea-level pressure: 1016.3 mb]
Winds: calm
Visibility: 10 or more miles (16+ km)
Ceiling: at least 12,000 feet AGL
Clouds: sky clear below 12,000 feet AGL
Weather: no significant weather observed at this time
Translated TAF for KFNT
Forecast for: KFNT (FLINT , MI, US)
TAF Text: KFNT 312320Z 0100/0124 23005KT P6SM SCT050
Forecast period: 0000 to 0800 UTC 01 August 2014
Forecast type: FROM: standard forecast or significant change
Winds: from the SW (230 degrees) at 6 MPH (5 knots; 2.6 m/s)
Visibility: 6 or more miles (10+ km)
Clouds: scattered clouds at 5000 feet AGL
Weather: no significant weather forecast for this period
TAF Text: FM010800 20005KT P6SM SCT050 BKN100
Forecast period: 0800 to 1400 UTC 01 August 2014
Forecast type: FROM: standard forecast or significant change
Winds: from the SSW (200 degrees) at 6 MPH (5 knots; 2.6 m/s)
Visibility: 6 or more miles (10+ km)
Ceiling: 10000 feet AGL
Clouds: scattered clouds at 5000 feet AGL
broken clouds at 10000 feet AGL
Weather: no significant weather forecast for this period
TAF Text: FM011400 24006KT P6SM BKN060
Forecast period: 1400 to 2300 UTC 01 August 2014
Forecast type: FROM: standard forecast or significant change
Winds: from the WSW (240 degrees) at 7 MPH (6 knots; 3.1 m/s)
Visibility: 6 or more miles (10+ km)
Ceiling: 6000 feet AGL
Clouds: broken clouds at 6000 feet AGL
Weather: no significant weather forecast for this period
TAF Text: FM012300 20004KT P6SM SCT060 BKN150
Forecast period: 2300 UTC 01 August 2014 to 0000 UTC 02 August 2014
Forecast type: FROM: standard forecast or significant change
Winds: from the SSW (200 degrees) at 5 MPH (4 knots; 2.1 m/s)
Visibility: 6 or more miles (10+ km)
Ceiling: 15000 feet AGL
Clouds: scattered clouds at 6000 feet AGL
broken clouds at 15000 feet AGL
Weather: no significant weather forecast for this period

Find All Airport Services Find A Hotel Find A Rental Car Find A Golf Course Find A Restaurant $100 Hamburger



FBO's on the Field
FBO Company Facility Photos Services Transportation Aviation Fuel Prices: Prices include tax
Catering Weather Repair Courtesy Rental Type 100LL JetA JetA+ MOGAS 8087
 
Avflight Flint

This FBO has not yet been rated
FS:Avfuel
Last Updated: Jul-21
Login to update fuel prices
SS:
Contact Avflight FlintMore FBO Information
 
Add another FBO Facility Photos Catering Weather Repair Courtesy Rental Type 100LL JetA JetA+ MOGAS 8087
Services Transportation Aviation Fuel Prices: Prices include tax


GlobalAir.com Airport Resource Center model-print
model-print
model-print
model-print